Issue, Maryland
Current Conditions -  °F | °C
As of 12:27 PM on Tuesday 21 Oct 2014 (Local Time) from K2W6 Reporting Station
Clear Clear  
Wind Chill: 66°   Ceiling: Unl
Heat Index: 66°   Visibility: 10mi
Dew Point: 48°   Wind: 3mph
Humidity: 52%   Direction: 10°N
Pressure: 29.87"   Gusts: NA
Location:  38.31°N, 76.92°W
Report Text: K2W6 211627Z AUTO 01003KT 10SM CLR 19/09 A2987 RMK AO1
Loading
Personal Weather Stations






























Interactive Weather Map
Tropical Storm Tracking
New forecast layout! Learn more

10-Day Weather Forecast

Advertisements
Track Severe Weather on mobile